Time;durP1;ratioP1;P1;durP2;ratioP2;P2;SDS_P1;SDS_P2;PMS_P1;PMS_P2;Temp;Humidity;BMP_temperature;BMP_pressure;BME280_temperature;BME280_humidity;BME280_pressure;Samples;Min_cycle;Max_cycle;Signal;HPM_P1;HPM_P2
2023/12/10 00:01:05;;;;;;;9.40;8.30;;;6.00;99.90;;;5.46;100.00;96442.72;5042892;28;20471;-73
2023/12/10 00:03:33;;;;;;;12.73;10.00;;;6.00;99.90;;;5.53;100.00;96431.91;5061455;28;20453;-73
2023/12/10 00:06:01;;;;;;;11.93;8.60;;;6.00;99.90;;;5.62;100.00;96451.22;5055273;28;20802;-74
2023/12/10 00:08:29;;;;;;;8.90;7.77;;;6.10;99.90;;;5.67;100.00;96470.91;5041085;28;20815;-74
2023/12/10 00:10:57;;;;;;;6.70;5.90;;;6.20;99.90;;;5.70;100.00;96474.22;5046890;28;21012;-74
2023/12/10 00:13:24;;;;;;;6.70;5.47;;;6.30;99.90;;;5.75;100.00;96477.03;5046060;28;20463;-74
2023/12/10 00:15:51;;;;;;;7.00;5.77;;;6.30;99.90;;;5.92;100.00;96483.44;5043043;28;20460;-75
2023/12/10 00:18:19;;;;;;;6.80;5.50;;;6.40;99.90;;;6.02;100.00;96499.03;5046454;28;21035;-75
2023/12/10 00:20:48;;;;;;;6.20;5.13;;;6.60;99.90;;;6.03;100.00;96513.28;5047901;28;20463;-75
2023/12/10 00:23:15;;;;;;;5.30;4.20;;;6.60;99.90;;;6.06;100.00;96526.22;5059460;28;20489;-74
2023/12/10 00:25:46;;;;;;;6.73;5.03;;;6.60;99.90;;;5.31;100.00;96410.91;5057990;28;20458;-75
2023/12/10 00:28:14;;;;;;;5.17;4.67;;;6.60;99.90;;;6.18;100.00;96518.25;5046911;28;20554;-74
2023/12/10 00:30:42;;;;;;;5.03;4.23;;;6.70;99.90;;;6.22;100.00;96532.88;5044492;28;20940;-73
2023/12/10 00:33:11;;;;;;;4.57;4.17;;;6.70;99.90;;;6.32;100.00;96543.88;5058703;28;20445;-73
2023/12/10 00:35:39;;;;;;;4.53;4.10;;;6.80;99.90;;;6.36;100.00;96541.56;5046342;28;20556;-73
2023/12/10 00:38:08;;;;;;;4.30;3.63;;;6.80;99.90;;;6.28;100.00;96539.19;5045709;28;21201;-74
2023/12/10 00:40:36;;;;;;;4.97;2.83;;;6.80;99.90;;;6.20;100.00;96522.34;5048260;28;20504;-74
2023/12/10 00:43:03;;;;;;;3.73;2.83;;;7.00;99.90;;;6.45;100.00;96550.97;5046000;28;20456;-74
2023/12/10 00:45:32;;;;;;;4.10;2.63;;;7.00;99.90;;;6.45;100.00;96568.91;5044423;28;20541;-74
2023/12/10 00:47:59;;;;;;;3.20;2.60;;;7.10;99.90;;;6.50;100.00;96559.16;5046712;28;20449;-74
2023/12/10 00:50:27;;;;;;;2.37;1.87;;;7.20;99.90;;;6.61;100.00;96589.78;5048980;28;20489;-74
2023/12/10 00:52:54;;;;;;;4.67;1.60;;;7.20;99.90;;;6.62;100.00;96571.81;5046281;28;20446;-72
2023/12/10 00:55:24;;;;;;;1.83;1.10;;;7.40;99.90;;;6.87;100.00;96605.78;5045595;28;20461;-72
2023/12/10 00:57:51;;;;;;;3.20;1.80;;;7.50;99.90;;;6.92;100.00;96595.19;5042610;28;20459;-74
2023/12/10 01:00:19;;;;;;;2.23;1.20;;;7.60;99.90;;;6.93;100.00;96610.25;5040373;28;20538;-73
2023/12/10 01:02:47;;;;;;;7.90;1.43;;;7.60;98.60;;;7.00;100.00;96616.34;5059494;28;20488;-73
2023/12/10 01:05:15;;;;;;;3.70;1.90;;;7.70;97.40;;;7.08;100.00;96624.09;5048968;28;20449;-74
2023/12/10 01:07:42;;;;;;;2.10;1.63;;;7.70;96.20;;;7.09;100.00;96624.91;5040980;28;20482;-73
2023/12/10 01:10:10;;;;;;;5.93;1.50;;;7.80;95.00;;;7.22;98.60;96642.72;5042573;28;21176;-73
2023/12/10 01:12:39;;;;;;;4.20;1.10;;;7.90;94.00;;;7.17;98.63;96653.31;5052519;28;20457;-74
2023/12/10 01:15:10;;;;;;;4.50;1.53;;;7.80;94.00;;;7.20;97.25;96652.84;5039069;28;20453;-73
2023/12/10 01:17:38;;;;;;;3.63;1.60;;;7.90;92.90;;;7.21;96.29;96651.84;5039541;28;20456;-72
2023/12/10 01:20:07;;;;;;;3.10;1.30;;;7.90;92.60;;;7.28;95.62;96665.97;5059585;28;21058;-73
2023/12/10 01:22:34;;;;;;;8.23;2.03;;;7.90;92.40;;;7.22;95.60;96666.91;5043444;28;20486;-73
2023/12/10 01:25:02;;;;;;;7.43;2.00;;;7.90;92.40;;;7.19;94.99;96681.59;5043984;28;20467;-73
2023/12/10 01:27:30;;;;;;;2.73;1.43;;;7.90;91.80;;;7.04;95.14;96660.50;5057752;28;20464;-73
2023/12/10 01:30:00;;;;;;;6.13;1.60;;;7.80;92.00;;;7.08;95.89;96691.25;5045395;28;20801;-73
2023/12/10 01:32:27;;;;;;;6.70;1.73;;;7.80;92.20;;;7.16;94.84;96697.34;5041903;28;20464;-73
2023/12/10 01:34:55;;;;;;;8.07;1.87;;;7.90;91.70;;;7.22;94.14;96704.50;5053303;28;20529;-73
2023/12/10 01:37:22;;;;;;;5.47;1.30;;;7.90;91.50;;;7.18;92.99;96698.75;5042464;28;20847;-73
2023/12/10 01:39:51;;;;;;;12.60;2.03;;;7.90;91.00;;;7.32;92.26;96718.19;5060572;28;20890;-73
2023/12/10 01:42:18;;;;;;;4.90;1.80;;;8.00;90.70;;;6.97;91.47;96649.03;5038472;28;20472;-73
2023/12/10 01:44:45;;;;;;;10.60;2.10;;;8.00;90.50;;;7.26;89.75;96711.06;5046645;28;20480;-71
2023/12/10 01:47:17;;;;;;;8.50;2.00;;;8.00;89.70;;;7.33;89.14;96716.34;5039189;28;20467;-72
2023/12/10 01:49:44;;;;;;;10.67;2.30;;;8.10;89.10;;;7.42;88.35;96724.91;5049809;28;20456;-73
2023/12/10 01:52:12;;;;;;;10.27;2.07;;;8.10;88.60;;;7.44;87.86;96734.41;5043340;28;20461;-73
2023/12/10 01:54:40;;;;;;;3.40;1.67;;;8.10;88.60;;;7.40;88.65;96743.94;5045729;28;21081;-74
2023/12/10 01:57:08;;;;;;;8.53;2.13;;;8.10;88.60;;;7.28;88.77;96719.72;5040930;28;20867;-73
2023/12/10 01:59:37;;;;;;;10.30;2.17;;;8.10;88.70;;;7.39;89.00;96763.00;5040990;28;20453;-74
2023/12/10 02:02:05;;;;;;;8.23;2.50;;;8.10;88.80;;;7.47;88.72;96766.19;5041725;28;20473;-73
2023/12/10 02:04:35;;;;;;;17.37;3.40;;;8.10;88.60;;;7.33;88.41;96749.41;5052895;28;21306;-73
2023/12/10 02:07:02;;;;;;;7.67;1.63;;;8.10;88.70;;;7.53;88.24;96783.28;5042858;28;20464;-72
2023/12/10 02:09:30;;;;;;;10.97;2.10;;;8.20;88.60;;;7.50;87.85;96770.28;5053094;28;20535;-73
2023/12/10 02:11:57;;;;;;;7.37;2.50;;;8.20;88.20;;;7.57;86.84;96786.31;5056521;28;20449;-73
2023/12/10 02:14:24;;;;;;;14.70;2.43;;;8.30;87.90;;;7.61;87.24;96793.72;5043012;28;20457;-72
2023/12/10 02:16:52;;;;;;;5.43;1.80;;;8.30;88.00;;;7.71;87.17;96797.75;5043356;28;20453;-73
2023/12/10 02:19:20;;;;;;;9.10;2.20;;;8.30;88.20;;;7.64;87.60;96805.91;5043934;28;20468;-73
2023/12/10 02:21:52;;;;;;;14.70;2.47;;;8.30;88.30;;;7.60;88.61;96824.34;5038986;28;20868;-73
2023/12/10 02:24:27;;;;;;;12.90;2.30;;;8.20;88.40;;;7.64;88.40;96820.13;5044278;28;20523;-72
2023/12/10 02:26:57;;;;;;;15.97;2.70;;;8.30;88.70;;;7.62;88.43;96829.50;5040942;28;20464;-73
2023/12/10 02:29:24;;;;;;;15.93;2.77;;;8.30;88.50;;;7.64;87.32;96822.81;5041136;28;20453;-73
2023/12/10 02:31:51;;;;;;;19.17;3.17;;;8.30;88.10;;;7.67;87.03;96823.44;5055557;28;20454;-73
2023/12/10 02:34:19;;;;;;;15.90;2.83;;;8.30;88.10;;;7.60;87.70;96816.25;5040417;28;20480;-73
2023/12/10 02:36:47;;;;;;;7.90;2.70;;;8.40;88.20;;;7.63;86.68;96833.81;5039141;28;20957;-74
2023/12/10 02:39:15;;;;;;;11.07;2.87;;;8.30;87.70;;;7.69;87.74;96842.84;5041114;28;21484;-74
2023/12/10 02:41:42;;;;;;;10.77;3.43;;;8.30;88.00;;;7.45;87.99;96816.66;5042869;28;20471;-74
2023/12/10 02:44:11;;;;;;;10.07;3.07;;;8.20;88.20;;;7.61;88.03;96841.28;5040709;28;20472;-73
2023/12/10 02:46:44;;;;;;;15.17;3.57;;;8.20;88.30;;;7.46;88.44;96831.75;5042133;28;20836;-74
2023/12/10 02:49:11;;;;;;;11.40;2.90;;;8.20;88.40;;;7.50;88.07;96846.38;5035783;28;20594;-73
2023/12/10 02:51:39;;;;;;;14.10;4.10;;;8.20;88.50;;;7.52;88.32;96843.47;5042082;28;20579;-74
2023/12/10 02:54:07;;;;;;;10.80;2.87;;;8.10;88.40;;;7.47;88.29;96849.50;5041025;28;20493;-73
2023/12/10 02:56:35;;;;;;;16.57;3.60;;;8.10;88.50;;;7.50;88.44;96849.06;5052839;28;20449;-72
2023/12/10 02:59:02;;;;;;;20.00;3.13;;;8.10;88.60;;;7.43;88.67;96851.00;5051446;28;20453;-72
2023/12/10 03:01:32;;;;;;;12.37;3.17;;;8.10;88.70;;;7.33;88.58;96856.88;5041874;28;20495;-73
2023/12/10 03:03:59;;;;;;;17.67;3.40;;;8.10;88.60;;;7.33;89.07;96862.25;5042132;28;20446;-75
2023/12/10 03:06:27;;;;;;;12.33;3.20;;;8.10;88.80;;;7.36;88.84;96867.22;5039304;28;21019;-73
2023/12/10 03:08:54;;;;;;;12.87;3.33;;;8.00;88.80;;;7.28;89.31;96870.16;5042251;28;20448;-73
2023/12/10 03:11:22;;;;;;;18.57;3.53;;;7.90;89.00;;;7.17;88.76;96852.94;5033486;28;20452;-73
2023/12/10 03:13:50;;;;;;;18.30;3.40;;;8.00;89.10;;;7.38;89.34;96885.78;5043726;28;20457;-74
2023/12/10 03:16:17;;;;;;;10.00;3.27;;;7.90;89.30;;;7.43;88.86;96893.19;5039648;28;20449;-73
2023/12/10 03:18:45;;;;;;;26.47;3.77;;;8.00;89.30;;;7.47;88.56;96907.81;5043212;28;20464;-74
2023/12/10 03:21:13;;;;;;;16.73;3.10;;;8.00;88.90;;;7.45;87.79;96899.16;5040410;28;20484;-74
2023/12/10 03:23:41;;;;;;;13.50;3.40;;;8.00;89.00;;;7.50;87.90;96904.66;5038584;28;20544;-74
2023/12/10 03:26:08;;;;;;;14.63;3.97;;;8.00;89.30;;;7.49;87.87;96908.41;5055420;28;20889;-73
2023/12/10 03:28:36;;;;;;;17.10;4.27;;;8.00;89.00;;;7.43;87.89;96904.75;5054796;28;20556;-73
2023/12/10 03:31:03;;;;;;;9.13;2.90;;;8.00;88.60;;;7.41;87.64;96884.53;5053431;28;20444;-72
2023/12/10 03:33:34;;;;;;;20.20;3.83;;;8.00;88.40;;;7.35;88.07;96916.63;5052221;28;20506;-72
2023/12/10 03:36:04;;;;;;;17.20;4.43;;;8.00;88.50;;;7.42;88.03;96919.22;5039279;28;20805;-76
2023/12/10 03:38:31;;;;;;;17.80;3.77;;;8.00;88.60;;;7.37;88.54;96927.97;5057604;28;20461;-73
2023/12/10 03:40:59;;;;;;;10.90;3.47;;;7.90;88.50;;;7.20;88.93;96937.59;5043302;28;20449;-74
2023/12/10 03:43:27;;;;;;;14.80;3.77;;;7.80;88.80;;;7.26;88.53;96941.28;5054269;28;20481;-74
2023/12/10 03:45:54;;;;;;;14.93;3.57;;;7.80;88.80;;;7.22;88.66;96938.22;5055267;28;20457;-74
2023/12/10 03:48:22;;;;;;;10.50;3.47;;;7.80;89.10;;;7.16;89.02;96949.84;5037134;28;20587;-73
2023/12/10 03:50:51;;;;;;;10.83;3.33;;;7.70;88.90;;;7.19;87.85;96935.97;5043443;28;20464;-74
2023/12/10 03:53:20;;;;;;;20.87;3.83;;;7.80;88.70;;;7.32;87.12;96953.84;5050979;28;20452;-72
2023/12/10 03:55:48;;;;;;;15.30;4.00;;;7.90;88.40;;;7.32;86.54;96957.34;5046196;28;20449;-73
2023/12/10 03:58:15;;;;;;;19.27;3.20;;;7.90;87.70;;;7.34;86.98;96959.81;5049276;28;20452;-74
2023/12/10 04:00:43;;;;;;;21.40;3.87;;;7.90;88.00;;;7.34;88.25;96963.31;5067144;28;20557;-72
2023/12/10 04:03:10;;;;;;;20.60;4.60;;;7.90;88.40;;;7.26;88.62;96946.66;5050986;28;20499;-73
2023/12/10 04:05:38;;;;;;;9.00;3.13;;;7.90;88.50;;;7.19;89.37;96952.91;5049321;28;20449;-73
2023/12/10 04:08:06;;;;;;;19.70;4.10;;;7.90;89.10;;;7.19;89.48;96955.59;5052076;28;20541;-74
2023/12/10 04:10:35;;;;;;;18.40;4.00;;;7.90;89.10;;;7.29;89.53;96963.16;5058887;28;20434;-73
2023/12/10 04:13:03;;;;;;;12.90;3.17;;;7.80;89.30;;;7.16;89.58;96963.28;5052585;28;20544;-75
2023/12/10 04:15:31;;;;;;;16.80;4.13;;;7.80;89.70;;;7.22;89.08;96975.84;5048806;28;20454;-74
2023/12/10 04:17:58;;;;;;;20.17;4.30;;;7.90;89.30;;;7.01;89.89;96951.00;5046920;28;20461;-74
2023/12/10 04:20:27;;;;;;;22.43;5.87;;;7.80;89.50;;;7.09;89.90;96980.28;5046180;28;20445;-73
2023/12/10 04:22:54;;;;;;;15.00;4.10;;;7.70;89.60;;;7.14;89.62;96981.47;5042760;28;20469;-73
2023/12/10 04:25:22;;;;;;;20.87;5.23;;;7.70;89.50;;;7.07;90.36;96987.75;5046887;28;20450;-73
2023/12/10 04:27:51;;;;;;;14.40;4.10;;;7.70;89.90;;;7.12;89.85;96999.69;5045428;28;20468;-73
2023/12/10 04:30:19;;;;;;;20.23;4.90;;;7.60;89.90;;;7.08;89.71;97007.34;5057121;28;20475;-73
2023/12/10 04:32:48;;;;;;;15.90;4.33;;;7.60;90.00;;;7.14;89.28;97009.19;5047860;28;20445;-74
2023/12/10 04:35:15;;;;;;;17.10;3.73;;;7.70;90.00;;;7.29;89.25;97011.53;5043474;28;20441;-73
2023/12/10 04:37:43;;;;;;;16.73;4.30;;;7.80;89.50;;;7.27;87.12;97008.25;5044555;28;20551;-72
2023/12/10 04:40:11;;;;;;;16.97;4.47;;;7.90;88.40;;;7.33;87.46;97015.41;5046491;28;20452;-73
2023/12/10 04:42:39;;;;;;;18.23;3.70;;;7.90;88.10;;;7.28;88.14;97012.56;5057209;28;20643;-72
2023/12/10 04:45:10;;;;;;;16.50;4.30;;;7.90;88.30;;;7.37;86.81;97013.97;5044301;28;20460;-72
2023/12/10 04:47:37;;;;;;;24.30;4.77;;;8.00;87.90;;;7.44;86.29;97021.13;5045438;28;20460;-73
2023/12/10 04:50:08;;;;;;;20.20;4.17;;;8.00;87.40;;;7.53;85.58;97027.88;5053375;28;20809;-72
2023/12/10 04:52:35;;;;;;;13.27;4.00;;;8.10;87.40;;;7.26;87.10;97006.59;5044709;28;20463;-73
2023/12/10 04:55:02;;;;;;;13.03;3.90;;;8.00;87.60;;;7.27;86.59;97024.38;5051723;28;20489;-75
2023/12/10 04:57:30;;;;;;;12.50;3.33;;;8.00;87.20;;;7.29;85.97;97024.16;5046142;28;20515;-73
2023/12/10 04:59:57;;;;;;;17.70;3.57;;;8.00;86.90;;;7.36;85.87;97041.88;5046332;28;20460;-74
2023/12/10 05:02:27;;;;;;;13.70;3.87;;;8.00;87.00;;;7.25;86.76;97042.56;5047156;28;20590;-75
2023/12/10 05:04:54;;;;;;;9.67;2.50;;;7.90;87.20;;;7.19;84.49;97040.75;5046837;28;20449;-74
2023/12/10 05:07:22;;;;;;;15.03;3.33;;;7.90;86.00;;;7.09;84.82;97035.84;5043781;28;20446;-74
2023/12/10 05:09:49;;;;;;;13.57;2.20;;;7.80;85.90;;;7.12;82.97;97043.47;5047294;28;20458;-73
2023/12/10 05:12:17;;;;;;;12.53;2.87;;;7.80;85.00;;;7.11;82.73;97052.56;5042844;28;20539;-74
2023/12/10 05:14:45;;;;;;;14.70;2.10;;;7.70;85.10;;;6.91;82.86;97053.53;5040775;28;20456;-73
2023/12/10 05:17:13;;;;;;;15.83;2.73;;;7.70;84.70;;;6.87;82.91;97054.16;5043733;28;20459;-73
2023/12/10 05:19:42;;;;;;;8.97;2.30;;;7.60;84.60;;;6.84;nan;97062.66;5048029;28;20449;-73
2023/12/10 05:22:10;;;;;;;9.73;1.87;;;7.50;84.40;;;6.88;82.38;97075.44;5046016;28;20440;-73
2023/12/10 05:24:37;;;;;;;8.80;2.30;;;7.50;84.50;;;6.70;83.33;97084.19;5046156;28;20463;-74
2023/12/10 05:27:05;;;;;;;11.30;1.90;;;7.40;84.70;;;6.60;83.83;97089.22;5045762;28;20926;-73
2023/12/10 05:29:32;;;;;;;8.43;1.87;;;7.30;84.80;;;5.98;83.92;97007.25;5063225;28;20450;-72
2023/12/10 05:31:59;;;;;;;6.13;2.13;;;7.20;84.90;;;6.54;84.20;97111.53;5047673;28;20979;-72
2023/12/10 05:34:27;;;;;;;6.33;1.70;;;7.20;84.90;;;6.36;84.49;97099.59;5051597;28;20887;-72
2023/12/10 05:36:56;;;;;;;17.63;2.73;;;7.10;85.10;;;6.31;85.04;97113.66;5049168;28;20455;-73
2023/12/10 05:39:23;;;;;;;5.93;1.83;;;7.10;85.30;;;6.22;85.92;97105.00;5041898;28;20484;-71
2023/12/10 05:41:52;;;;;;;7.93;1.77;;;7.00;85.70;;;6.20;86.17;97116.97;5040144;28;20487;-72
2023/12/10 05:44:20;;;;;;;12.67;2.03;;;6.90;85.60;;;6.21;86.18;97119.44;5061017;28;20474;-72
2023/12/10 05:46:47;;;;;;;6.00;1.97;;;7.00;85.70;;;6.17;86.46;97128.97;5043710;28;20478;-73
2023/12/10 05:49:15;;;;;;;7.27;1.80;;;6.90;85.80;;;6.12;86.72;97126.06;5043933;28;20458;-72
2023/12/10 05:51:42;;;;;;;9.30;2.20;;;6.90;86.20;;;6.09;87.12;97127.31;5043391;28;20490;-73
2023/12/10 05:54:12;;;;;;;10.40;2.50;;;6.80;86.30;;;6.08;87.47;97130.19;5046123;28;20540;-72
2023/12/10 05:56:41;;;;;;;5.40;1.77;;;6.70;86.70;;;5.99;87.76;97131.41;5041660;28;20455;-73
2023/12/10 05:59:08;;;;;;;6.50;2.30;;;6.70;86.90;;;6.01;87.73;97140.09;5046314;28;20555;-74
2023/12/10 06:01:36;;;;;;;14.30;2.50;;;6.70;86.90;;;5.94;87.54;97134.72;5042653;28;20456;-74
2023/12/10 06:04:03;;;;;;;10.27;2.27;;;6.60;87.00;;;5.96;87.47;97136.16;5046521;28;20899;-72
2023/12/10 06:06:31;;;;;;;12.93;3.23;;;6.60;87.00;;;5.87;87.97;97148.13;5044169;28;20544;-72
2023/12/10 06:08:58;;;;;;;8.20;2.50;;;6.50;87.30;;;5.87;87.46;97158.84;5045247;28;20456;-72
2023/12/10 06:11:28;;;;;;;10.50;2.00;;;6.50;87.20;;;5.82;88.34;97153.28;5057560;28;20484;-71
2023/12/10 06:13:55;;;;;;;8.37;2.30;;;6.40;87.30;;;5.81;88.38;97160.50;5043822;28;20442;-73
2023/12/10 06:16:23;;;;;;;4.57;1.50;;;6.40;87.60;;;5.79;88.55;97156.38;5043715;28;20463;-74
2023/12/10 06:18:50;;;;;;;9.93;2.23;;;6.40;88.00;;;5.78;89.31;97162.75;5051876;28;20454;-74
2023/12/10 06:21:17;;;;;;;6.07;1.87;;;6.50;88.30;;;5.82;89.17;97164.00;5041615;28;20467;-74
2023/12/10 06:23:44;;;;;;;8.30;2.27;;;6.60;88.30;;;5.86;89.19;97157.22;5047818;28;20471;-73
2023/12/10 06:26:12;;;;;;;9.00;2.20;;;6.60;88.20;;;5.93;89.38;97182.16;5052272;28;20538;-75
2023/12/10 06:28:41;;;;;;;7.27;1.80;;;6.60;88.50;;;5.87;89.58;97177.63;5039528;28;20463;-73
2023/12/10 06:31:09;;;;;;;6.37;2.10;;;6.50;88.60;;;5.87;90.42;97185.66;5050371;28;20450;-72
2023/12/10 06:33:37;;;;;;;8.40;1.83;;;6.50;89.40;;;5.86;90.65;97193.91;5041225;28;20484;-76
2023/12/10 06:36:05;;;;;;;8.40;2.43;;;6.50;89.90;;;5.78;91.00;97192.25;5036614;28;20459;-75
2023/12/10 06:38:32;;;;;;;8.30;2.13;;;6.40;90.00;;;5.74;90.97;97185.66;5048138;28;20448;-75
2023/12/10 06:41:00;;;;;;;11.63;1.90;;;6.50;90.10;;;5.80;90.57;97190.19;5043397;28;20544;-76
2023/12/10 06:43:28;;;;;;;7.43;2.00;;;6.50;90.00;;;5.84;91.22;97212.91;5039513;28;20475;-77
2023/12/10 06:45:58;;;;;;;7.17;1.57;;;6.50;90.00;;;5.76;91.62;97213.06;5052960;28;21049;-74
2023/12/10 06:48:27;;;;;;;12.43;2.23;;;6.40;90.10;;;5.72;92.03;97211.84;5042076;28;20446;-74
2023/12/10 06:50:54;;;;;;;11.33;2.50;;;6.40;90.50;;;5.62;92.19;97210.38;5037761;28;20459;-74
2023/12/10 06:53:22;;;;;;;13.50;2.20;;;6.40;90.60;;;5.78;93.00;97205.66;5054683;28;20870;-74
2023/12/10 06:55:50;;;;;;;7.60;2.10;;;6.40;91.10;;;5.75;91.71;97200.72;5050239;28;20460;-74
2023/12/10 06:58:17;;;;;;;9.73;2.00;;;6.40;90.70;;;5.76;91.72;97224.63;5042340;28;20475;-74
2023/12/10 07:00:44;;;;;;;7.73;2.27;;;6.40;90.30;;;5.74;91.62;97225.88;5056620;28;20727;-74
2023/12/10 07:03:14;;;;;;;6.03;1.63;;;6.40;90.40;;;5.73;91.72;97218.84;5040765;28;20476;-74
2023/12/10 07:05:41;;;;;;;5.83;1.60;;;6.40;90.50;;;5.81;91.50;97224.00;5035417;28;20466;-73
2023/12/10 07:08:08;;;;;;;5.93;1.53;;;6.40;90.40;;;5.76;91.85;97224.63;5042026;28;20940;-74
2023/12/10 07:10:35;;;;;;;9.10;2.03;;;6.40;90.40;;;5.78;91.24;97222.56;5040909;28;20459;-84
2023/12/10 07:13:02;;;;;;;7.03;2.10;;;6.50;90.20;;;5.76;91.07;97227.31;5039343;28;20457;-79
2023/12/10 07:15:31;;;;;;;10.43;2.10;;;6.50;90.10;;;5.84;91.03;97231.66;5043077;28;20768;-78
2023/12/10 07:17:58;;;;;;;9.83;2.23;;;6.50;90.00;;;5.40;90.45;97166.84;5039612;28;20472;-77
2023/12/10 07:20:27;;;;;;;14.80;2.13;;;6.50;89.80;;;5.77;90.59;97246.91;5055190;28;20531;-83
2023/12/10 07:22:54;;;;;;;11.30;2.83;;;6.50;89.50;;;5.84;90.24;97249.59;5040973;28;20522;-84
2023/12/10 07:25:22;;;;;;;8.10;2.60;;;6.50;89.50;;;5.89;89.99;97263.19;5042679;28;20445;-84
2023/12/10 07:27:50;;;;;;;11.80;2.50;;;6.50;89.30;;;5.86;89.70;97259.09;5064788;28;20557;-84
2023/12/10 07:30:17;;;;;;;7.43;2.27;;;6.60;88.90;;;6.00;88.80;97275.19;5057889;28;20462;-80
2023/12/10 07:32:46;;;;;;;10.77;2.97;;;6.60;89.00;;;6.00;88.60;97278.69;5058566;28;20473;-81
2023/12/10 07:35:13;;;;;;;9.30;2.80;;;6.70;88.50;;;6.08;87.81;97275.84;5044488;28;20548;-82
2023/12/10 07:37:41;;;;;;;9.73;2.40;;;6.70;88.00;;;6.12;87.07;97275.44;5063997;28;20457;-81
2023/12/10 07:40:10;;;;;;;11.60;2.73;;;6.80;87.30;;;6.30;86.23;97288.25;5065894;28;20455;-81
2023/12/10 07:42:37;;;;;;;12.67;2.50;;;7.00;86.80;;;6.50;85.30;97281.03;5064067;28;20460;-82
2023/12/10 07:45:07;;;;;;;17.43;2.93;;;7.00;86.50;;;6.60;85.14;97293.22;5048075;28;20496;-77
2023/12/10 07:47:34;;;;;;;10.70;2.40;;;7.20;86.10;;;6.74;83.39;97294.81;5052646;28;20697;-79
2023/12/10 07:50:02;;;;;;;13.80;3.43;;;7.30;85.70;;;6.91;82.59;97297.09;5044380;28;20468;-82
2023/12/10 07:52:29;;;;;;;13.53;3.50;;;7.40;85.20;;;7.02;81.47;97291.06;5043485;28;20449;-76
2023/12/10 07:54:59;;;;;;;10.97;3.00;;;7.60;84.60;;;6.77;80.90;97240.72;5041236;28;20551;-77
2023/12/10 07:57:26;;;;;;;13.13;3.40;;;7.70;84.30;;;7.36;79.75;97301.72;5040747;28;20445;-82
2023/12/10 07:59:53;;;;;;;13.33;3.40;;;7.90;83.60;;;7.42;78.92;97311.59;5036732;28;21072;-75
2023/12/10 08:02:21;;;;;;;11.20;2.97;;;8.00;82.80;;;7.50;79.02;97315.91;5043085;28;20477;-72
2023/12/10 08:04:49;;;;;;;10.00;3.17;;;8.10;82.50;;;7.61;77.80;97320.63;5046665;28;20476;-75
2023/12/10 08:07:16;;;;;;;14.43;2.80;;;8.20;82.30;;;7.55;77.93;97313.44;5044795;28;20463;-73
2023/12/10 08:09:43;;;;;;;10.83;2.70;;;8.20;82.10;;;7.71;76.94;97313.97;5054694;28;20449;-73
2023/12/10 08:12:12;;;;;;;21.13;3.20;;;8.30;81.80;;;7.64;76.40;97320.19;5041325;28;20496;-73
2023/12/10 08:14:40;;;;;;;12.17;3.07;;;8.30;81.50;;;7.59;77.04;97317.34;5042754;28;20465;-74
2023/12/10 08:17:07;;;;;;;10.77;2.53;;;8.30;81.30;;;7.56;75.99;97311.56;5041525;28;20978;-74
2023/12/10 08:19:35;;;;;;;10.07;2.77;;;8.30;80.70;;;7.56;75.14;97317.75;5059162;28;20459;-73
2023/12/10 08:22:03;;;;;;;12.97;2.93;;;8.30;80.40;;;7.69;74.79;97329.50;5046148;28;20448;-74
2023/12/10 08:24:31;;;;;;;13.37;2.70;;;8.40;80.20;;;7.62;75.00;97349.16;5044676;28;20487;-72
2023/12/10 08:26:59;;;;;;;12.67;2.40;;;8.40;79.90;;;7.58;75.16;97334.50;5037136;28;20465;-75
2023/12/10 08:29:27;;;;;;;8.27;2.73;;;8.30;79.90;;;7.63;74.30;97345.44;5037840;28;20471;-72
2023/12/10 08:31:55;;;;;;;6.50;2.10;;;8.40;79.60;;;7.56;74.24;97355.41;5052866;28;20457;-80
2023/12/10 08:34:23;;;;;;;15.63;3.87;;;8.30;79.60;;;7.66;74.42;97352.25;5044874;28;20512;-78
2023/12/10 08:36:50;;;;;;;6.70;2.10;;;8.30;79.80;;;7.67;74.67;97353.09;5037713;28;20456;-77
2023/12/10 08:39:19;;;;;;;14.27;2.80;;;8.40;79.60;;;7.82;74.05;97368.94;5043583;28;20472;-77
2023/12/10 08:41:46;;;;;;;10.60;2.90;;;8.50;79.30;;;7.90;73.59;97371.41;5044628;28;20460;-80
2023/12/10 08:44:13;;;;;;;14.93;2.73;;;8.50;79.30;;;7.22;74.08;97291.00;5057965;28;20579;-80
2023/12/10 08:46:43;;;;;;;13.63;2.90;;;8.50;79.50;;;7.97;73.19;97369.50;5038149;28;20469;-80
2023/12/10 08:49:10;;;;;;;7.23;2.00;;;8.60;79.10;;;7.90;73.42;97372.22;5043942;28;20464;-77
2023/12/10 08:51:38;;;;;;;14.20;3.00;;;8.50;79.00;;;7.75;74.35;97369.81;5039998;28;21075;-77
2023/12/10 08:54:07;;;;;;;7.10;2.27;;;8.50;79.10;;;7.84;73.36;97364.19;5038939;28;20456;-85
2023/12/10 08:56:34;;;;;;;10.67;2.57;;;8.50;78.80;;;7.83;73.39;97376.81;5043454;28;20637;-74
2023/12/10 08:59:01;;;;;;;11.73;2.50;;;8.50;78.80;;;7.83;73.34;97370.59;5041356;28;20481;-73
2023/12/10 09:01:29;;;;;;;11.40;2.60;;;8.60;78.80;;;8.04;72.98;97382.91;5032795;28;20454;-73
2023/12/10 09:03:59;;;;;;;9.10;2.70;;;8.60;78.70;;;8.04;71.94;97377.53;5055652;28;20480;-74
2023/12/10 09:06:27;;;;;;;10.27;2.93;;;8.70;78.50;;;7.92;72.19;97391.66;5039071;28;20547;-72
2023/12/10 09:08:55;;;;;;;17.57;2.37;;;8.60;77.70;;;8.03;72.41;97397.41;5059950;28;21015;-74
2023/12/10 09:11:23;;;;;;;11.47;2.50;;;8.70;78.10;;;8.10;70.95;97398.19;5035416;28;20623;-72
2023/12/10 09:13:50;;;;;;;9.30;2.63;;;8.80;77.50;;;8.20;71.09;97403.94;5049425;28;20436;-73
2023/12/10 09:16:20;;;;;;;10.07;2.90;;;8.80;77.30;;;8.28;71.16;97404.75;5035619;28;20488;-74
2023/12/10 09:18:48;;;;;;;8.33;2.77;;;8.90;77.20;;;8.61;69.70;97398.34;5038010;28;20449;-74
2023/12/10 09:21:16;;;;;;;12.23;2.70;;;9.10;77.30;;;8.67;69.32;97413.63;5056536;28;20446;-73
2023/12/10 09:23:44;;;;;;;10.97;2.63;;;9.30;77.00;;;8.65;68.56;97394.19;5040729;28;20505;-72
2023/12/10 09:26:12;;;;;;;14.03;2.87;;;9.30;76.50;;;8.64;68.20;97373.69;5040598;28;20534;-74
2023/12/10 09:28:40;;;;;;;12.20;2.53;;;9.50;76.10;;;8.59;69.36;97405.84;5044544;28;20465;-74
2023/12/10 09:31:07;;;;;;;13.53;2.73;;;9.40;76.00;;;8.84;69.35;97424.72;5059208;28;20456;-75
2023/12/10 09:33:34;;;;;;;10.03;2.63;;;9.50;76.10;;;9.12;67.39;97414.53;5047838;28;20458;-73
2023/12/10 09:36:02;;;;;;;8.80;2.77;;;9.70;75.50;;;9.12;67.22;97399.19;5042411;28;20457;-73
2023/12/10 09:38:31;;;;;;;9.60;2.90;;;9.80;75.30;;;9.18;67.47;97425.25;5044563;28;20464;-74
2023/12/10 09:40:59;;;;;;;7.80;2.70;;;9.80;75.10;;;8.94;67.33;97418.81;5049701;28;20475;-73
2023/12/10 09:43:27;;;;;;;11.27;2.40;;;9.80;74.50;;;9.10;67.68;97422.84;5036745;28;20842;-74
2023/12/10 09:45:55;;;;;;;10.00;2.53;;;9.70;75.00;;;9.00;67.27;97422.50;5041597;28;20468;-72
2023/12/10 09:48:23;;;;;;;8.27;1.97;;;9.80;74.70;;;9.12;66.10;97409.13;5045313;28;20449;-72
2023/12/10 09:50:50;;;;;;;13.10;3.13;;;9.80;74.30;;;9.39;66.15;97433.16;5043652;28;20476;-74
2023/12/10 09:53:17;;;;;;;9.83;2.50;;;9.90;74.20;;;9.52;65.51;97427.63;5053627;28;20441;-75
2023/12/10 09:55:47;;;;;;;12.93;2.67;;;10.10;72.70;;;9.44;65.58;97427.91;5058399;28;21029;-72
2023/12/10 09:58:14;;;;;;;11.40;2.60;;;10.10;72.70;;;9.41;64.59;97417.59;5051207;28;20442;-73
2023/12/10 10:00:42;;;;;;;10.10;1.80;;;10.10;72.00;;;9.07;65.20;97440.28;5040837;28;21137;-72
2023/12/10 10:03:12;;;;;;;10.83;2.60;;;9.90;72.60;;;9.10;64.95;97409.38;5033778;28;20457;-73
2023/12/10 10:05:40;;;;;;;6.63;2.03;;;9.90;72.90;;;8.99;66.38;97416.28;5044938;28;20473;-73
2023/12/10 10:08:07;;;;;;;5.73;2.40;;;9.80;73.00;;;9.07;65.63;97413.31;5045128;28;20450;-73
2023/12/10 10:10:34;;;;;;;10.93;2.83;;;9.80;72.90;;;9.07;66.24;97404.41;5039040;28;20446;-74
2023/12/10 10:13:06;;;;;;;11.90;2.33;;;9.80;73.10;;;9.33;65.12;97411.44;5038448;28;20564;-73
2023/12/10 10:15:34;;;;;;;7.97;1.90;;;9.90;73.10;;;9.29;64.53;97421.00;5043618;28;20460;-73
2023/12/10 10:18:02;;;;;;;6.20;1.67;;;10.00;71.70;;;9.35;65.46;97414.75;5040298;28;20458;-73
2023/12/10 10:20:30;;;;;;;9.30;2.53;;;10.10;71.60;;;9.21;64.71;97387.06;5042982;28;20540;-74
2023/12/10 10:22:58;;;;;;;8.10;2.50;;;10.00;71.20;;;9.51;63.58;97423.28;5048625;28;20461;-75
2023/12/10 10:25:25;;;;;;;11.90;2.83;;;10.20;71.00;;;9.75;62.99;97439.63;5035786;28;20481;-74
2023/12/10 10:27:54;;;;;;;11.87;2.97;;;10.30;70.20;;;9.63;63.97;97434.16;5039880;28;20954;-73
2023/12/10 10:30:23;;;;;;;14.37;2.93;;;10.40;70.80;;;9.66;63.63;97457.19;5039878;28;20493;-74